sensor_id;sensor_type;location;lat;lon;timestamp;temperature;humidity
8591;DHT22;4333;48.322;14.340;2023-02-28T00:01:24;-0.40;35.50
8591;DHT22;4333;48.322;14.340;2023-02-28T00:03:50;-0.40;36.10
8591;DHT22;4333;48.322;14.340;2023-02-28T00:06:16;-0.40;37.50
8591;DHT22;4333;48.322;14.340;2023-02-28T00:08:42;-0.50;38.10
8591;DHT22;4333;48.322;14.340;2023-02-28T00:11:10;-0.50;39.10
8591;DHT22;4333;48.322;14.340;2023-02-28T00:13:41;-0.50;39.20
8591;DHT22;4333;48.322;14.340;2023-02-28T00:16:09;-0.50;37.70
8591;DHT22;4333;48.322;14.340;2023-02-28T00:18:35;-0.50;37.50
8591;DHT22;4333;48.322;14.340;2023-02-28T00:21:01;-0.50;38.30
8591;DHT22;4333;48.322;14.340;2023-02-28T00:23:30;-0.50;39.00
8591;DHT22;4333;48.322;14.340;2023-02-28T00:25:56;-0.60;38.70
8591;DHT22;4333;48.322;14.340;2023-02-28T00:28:22;-0.60;39.00
8591;DHT22;4333;48.322;14.340;2023-02-28T00:30:48;-0.70;39.20
8591;DHT22;4333;48.322;14.340;2023-02-28T00:33:14;-0.70;40.10
8591;DHT22;4333;48.322;14.340;2023-02-28T00:35:40;-0.80;41.00
8591;DHT22;4333;48.322;14.340;2023-02-28T00:38:06;-0.80;42.00
8591;DHT22;4333;48.322;14.340;2023-02-28T00:40:32;-0.80;42.80
8591;DHT22;4333;48.322;14.340;2023-02-28T00:42:57;-0.80;43.30
8591;DHT22;4333;48.322;14.340;2023-02-28T00:45:26;-0.80;43.30
8591;DHT22;4333;48.322;14.340;2023-02-28T00:47:51;-0.90;43.00
8591;DHT22;4333;48.322;14.340;2023-02-28T00:50:18;-0.90;42.90
8591;DHT22;4333;48.322;14.340;2023-02-28T00:52:45;-0.90;43.00
8591;DHT22;4333;48.322;14.340;2023-02-28T00:55:14;-0.90;43.50
8591;DHT22;4333;48.322;14.340;2023-02-28T00:57:58;-0.90;44.30
8591;DHT22;4333;48.322;14.340;2023-02-28T01:00:24;-0.90;43.50
8591;DHT22;4333;48.322;14.340;2023-02-28T01:02:50;-0.90;43.20
8591;DHT22;4333;48.322;14.340;2023-02-28T01:05:18;-0.90;43.50
8591;DHT22;4333;48.322;14.340;2023-02-28T01:07:44;-0.90;44.00
8591;DHT22;4333;48.322;14.340;2023-02-28T01:10:10;-1.00;43.80
8591;DHT22;4333;48.322;14.340;2023-02-28T01:12:36;-0.90;44.40
8591;DHT22;4333;48.322;14.340;2023-02-28T01:15:02;-1.00;44.70
8591;DHT22;4333;48.322;14.340;2023-02-28T01:17:32;-1.00;45.40
8591;DHT22;4333;48.322;14.340;2023-02-28T01:19:58;-1.00;45.90
8591;DHT22;4333;48.322;14.340;2023-02-28T01:22:24;-1.00;46.00
8591;DHT22;4333;48.322;14.340;2023-02-28T01:24:50;-1.00;45.10
8591;DHT22;4333;48.322;14.340;2023-02-28T01:27:15;-1.00;45.40
8591;DHT22;4333;48.322;14.340;2023-02-28T01:29:41;-1.00;44.20
8591;DHT22;4333;48.322;14.340;2023-02-28T01:32:07;-1.00;43.80
8591;DHT22;4333;48.322;14.340;2023-02-28T01:34:32;-1.00;44.20
8591;DHT22;4333;48.322;14.340;2023-02-28T01:36:58;-0.90;43.60
8591;DHT22;4333;48.322;14.340;2023-02-28T01:39:25;-0.90;42.00
8591;DHT22;4333;48.322;14.340;2023-02-28T01:41:50;-0.90;42.00
8591;DHT22;4333;48.322;14.340;2023-02-28T01:47:20;-0.90;42.30
8591;DHT22;4333;48.322;14.340;2023-02-28T01:49:46;-0.90;41.70
8591;DHT22;4333;48.322;14.340;2023-02-28T01:52:14;-0.90;40.50
8591;DHT22;4333;48.322;14.340;2023-02-28T01:54:45;-0.90;40.00
8591;DHT22;4333;48.322;14.340;2023-02-28T01:57:14;-0.90;40.60
8591;DHT22;4333;48.322;14.340;2023-02-28T01:59:54;-0.90;40.40
8591;DHT22;4333;48.322;14.340;2023-02-28T02:02:24;-0.90;39.80
8591;DHT22;4333;48.322;14.340;2023-02-28T02:04:52;-0.90;39.40
8591;DHT22;4333;48.322;14.340;2023-02-28T02:07:20;-0.90;39.00
8591;DHT22;4333;48.322;14.340;2023-02-28T02:09:46;-1.00;39.80
8591;DHT22;4333;48.322;14.340;2023-02-28T02:15:21;-0.90;39.00
8591;DHT22;4333;48.322;14.340;2023-02-28T02:17:55;-1.00;40.00
8591;DHT22;4333;48.322;14.340;2023-02-28T02:25:53;-0.90;37.00
8591;DHT22;4333;48.322;14.340;2023-02-28T02:39:15;-0.90;35.00
8591;DHT22;4333;48.322;14.340;2023-02-28T02:41:51;-1.00;36.30
8591;DHT22;4333;48.322;14.340;2023-02-28T02:44:24;-1.00;35.40
8591;DHT22;4333;48.322;14.340;2023-02-28T02:47:05;-1.00;35.00
8591;DHT22;4333;48.322;14.340;2023-02-28T02:49:36;-1.00;35.00
8591;DHT22;4333;48.322;14.340;2023-02-28T02:52:06;-1.00;35.10
8591;DHT22;4333;48.322;14.340;2023-02-28T02:54:39;-1.00;34.30
8591;DHT22;4333;48.322;14.340;2023-02-28T02:57:14;-1.00;34.10
8591;DHT22;4333;48.322;14.340;2023-02-28T02:59:43;-1.10;34.30
8591;DHT22;4333;48.322;14.340;2023-02-28T03:02:12;-1.20;34.90
8591;DHT22;4333;48.322;14.340;2023-02-28T03:05:01;-1.20;35.00
8591;DHT22;4333;48.322;14.340;2023-02-28T03:07:28;-1.10;35.40
8591;DHT22;4333;48.322;14.340;2023-02-28T03:09:55;-1.20;35.20
8591;DHT22;4333;48.322;14.340;2023-02-28T03:12:25;-1.20;36.20
8591;DHT22;4333;48.322;14.340;2023-02-28T03:20:47;-1.30;36.50
8591;DHT22;4333;48.322;14.340;2023-02-28T03:23:42;-1.30;35.60
8591;DHT22;4333;48.322;14.340;2023-02-28T03:26:19;-1.20;35.50
8591;DHT22;4333;48.322;14.340;2023-02-28T03:34:42;-1.30;36.20
8591;DHT22;4333;48.322;14.340;2023-02-28T03:37:17;-1.30;36.40
8591;DHT22;4333;48.322;14.340;2023-02-28T03:39:47;-1.40;36.70
8591;DHT22;4333;48.322;14.340;2023-02-28T03:42:19;-1.40;36.50
8591;DHT22;4333;48.322;14.340;2023-02-28T03:47:33;-1.50;37.60
8591;DHT22;4333;48.322;14.340;2023-02-28T03:50:20;-1.50;38.10
8591;DHT22;4333;48.322;14.340;2023-02-28T03:53:04;-1.60;38.20
8591;DHT22;4333;48.322;14.340;2023-02-28T03:55:40;-1.60;39.00
8591;DHT22;4333;48.322;14.340;2023-02-28T04:00:50;-1.60;38.80
8591;DHT22;4333;48.322;14.340;2023-02-28T04:03:19;-1.60;37.60
8591;DHT22;4333;48.322;14.340;2023-02-28T04:05:51;-1.60;38.40
8591;DHT22;4333;48.322;14.340;2023-02-28T04:08:17;-1.60;38.20
8591;DHT22;4333;48.322;14.340;2023-02-28T04:10:46;-1.60;38.20
8591;DHT22;4333;48.322;14.340;2023-02-28T04:13:13;-1.60;38.30
8591;DHT22;4333;48.322;14.340;2023-02-28T04:15:39;-1.60;38.20
8591;DHT22;4333;48.322;14.340;2023-02-28T04:18:04;-1.70;38.20
8591;DHT22;4333;48.322;14.340;2023-02-28T04:20:31;-1.60;39.00
8591;DHT22;4333;48.322;14.340;2023-02-28T04:22:56;-1.60;38.20
8591;DHT22;4333;48.322;14.340;2023-02-28T04:25:24;-1.60;36.90
8591;DHT22;4333;48.322;14.340;2023-02-28T04:27:52;-1.60;37.60
8591;DHT22;4333;48.322;14.340;2023-02-28T04:30:20;-1.60;36.80
8591;DHT22;4333;48.322;14.340;2023-02-28T04:32:46;-1.60;36.00
8591;DHT22;4333;48.322;14.340;2023-02-28T04:35:14;-1.60;36.00
8591;DHT22;4333;48.322;14.340;2023-02-28T04:37:42;-1.60;35.30
8591;DHT22;4333;48.322;14.340;2023-02-28T04:40:10;-1.60;35.30
8591;DHT22;4333;48.322;14.340;2023-02-28T04:42:36;-1.50;33.30
8591;DHT22;4333;48.322;14.340;2023-02-28T04:45:02;-1.60;34.90
8591;DHT22;4333;48.322;14.340;2023-02-28T04:47:28;-1.60;34.00
8591;DHT22;4333;48.322;14.340;2023-02-28T04:49:54;-1.60;33.60
8591;DHT22;4333;48.322;14.340;2023-02-28T04:52:22;-1.60;34.40
8591;DHT22;4333;48.322;14.340;2023-02-28T04:54:48;-1.70;34.10
8591;DHT22;4333;48.322;14.340;2023-02-28T04:57:14;-1.70;34.50
8591;DHT22;4333;48.322;14.340;2023-02-28T04:59:40;-1.60;32.50
8591;DHT22;4333;48.322;14.340;2023-02-28T05:02:06;-1.50;32.00
8591;DHT22;4333;48.322;14.340;2023-02-28T05:04:33;-1.60;32.10
8591;DHT22;4333;48.322;14.340;2023-02-28T05:07:00;-1.60;33.60
8591;DHT22;4333;48.322;14.340;2023-02-28T05:09:26;-1.60;33.30
8591;DHT22;4333;48.322;14.340;2023-02-28T05:11:53;-1.60;33.20
8591;DHT22;4333;48.322;14.340;2023-02-28T05:14:19;-1.70;34.30
8591;DHT22;4333;48.322;14.340;2023-02-28T05:16:45;-1.70;34.60
8591;DHT22;4333;48.322;14.340;2023-02-28T05:19:10;-1.70;34.20
8591;DHT22;4333;48.322;14.340;2023-02-28T05:21:41;-1.70;34.70
8591;DHT22;4333;48.322;14.340;2023-02-28T05:24:10;-1.80;35.90
8591;DHT22;4333;48.322;14.340;2023-02-28T05:26:42;-1.70;34.90
8591;DHT22;4333;48.322;14.340;2023-02-28T05:29:08;-1.80;35.20
8591;DHT22;4333;48.322;14.340;2023-02-28T05:31:37;-1.80;36.20
8591;DHT22;4333;48.322;14.340;2023-02-28T05:34:03;-1.80;36.20
8591;DHT22;4333;48.322;14.340;2023-02-28T05:36:31;-1.90;37.00
8591;DHT22;4333;48.322;14.340;2023-02-28T05:38:57;-1.90;36.90
8591;DHT22;4333;48.322;14.340;2023-02-28T05:41:23;-1.80;38.60
8591;DHT22;4333;48.322;14.340;2023-02-28T05:43:49;-1.80;38.20
8591;DHT22;4333;48.322;14.340;2023-02-28T05:46:15;-1.80;37.40
8591;DHT22;4333;48.322;14.340;2023-02-28T05:48:42;-1.80;37.50
8591;DHT22;4333;48.322;14.340;2023-02-28T05:51:11;-1.80;37.10
8591;DHT22;4333;48.322;14.340;2023-02-28T05:53:37;-1.80;37.30
8591;DHT22;4333;48.322;14.340;2023-02-28T05:56:03;-1.80;35.60
8591;DHT22;4333;48.322;14.340;2023-02-28T05:58:29;-1.80;35.60
8591;DHT22;4333;48.322;14.340;2023-02-28T06:00:57;-1.70;36.50
8591;DHT22;4333;48.322;14.340;2023-02-28T06:03:23;-1.70;36.10
8591;DHT22;4333;48.322;14.340;2023-02-28T06:05:49;-1.80;37.20
8591;DHT22;4333;48.322;14.340;2023-02-28T06:08:15;-1.70;37.40
8591;DHT22;4333;48.322;14.340;2023-02-28T06:10:41;-1.70;35.80
8591;DHT22;4333;48.322;14.340;2023-02-28T06:13:07;-1.70;36.20
8591;DHT22;4333;48.322;14.340;2023-02-28T06:15:33;-1.70;36.00
8591;DHT22;4333;48.322;14.340;2023-02-28T06:18:01;-1.70;35.00
8591;DHT22;4333;48.322;14.340;2023-02-28T06:20:27;-1.60;36.00
8591;DHT22;4333;48.322;14.340;2023-02-28T06:22:59;-1.50;33.50
8591;DHT22;4333;48.322;14.340;2023-02-28T06:25:28;-1.50;34.20
8591;DHT22;4333;48.322;14.340;2023-02-28T06:27:54;-1.40;32.50
8591;DHT22;4333;48.322;14.340;2023-02-28T06:30:19;-1.40;31.80
8591;DHT22;4333;48.322;14.340;2023-02-28T06:32:49;-1.30;30.90
8591;DHT22;4333;48.322;14.340;2023-02-28T06:35:15;-1.30;30.60
8591;DHT22;4333;48.322;14.340;2023-02-28T06:37:40;-1.20;29.70
8591;DHT22;4333;48.322;14.340;2023-02-28T06:40:08;-1.20;30.40
8591;DHT22;4333;48.322;14.340;2023-02-28T06:42:34;-1.10;29.00
8591;DHT22;4333;48.322;14.340;2023-02-28T06:45:00;-1.10;28.40
8591;DHT22;4333;48.322;14.340;2023-02-28T06:47:35;-1.00;27.40
8591;DHT22;4333;48.322;14.340;2023-02-28T06:50:01;-1.00;27.50
8591;DHT22;4333;48.322;14.340;2023-02-28T06:52:27;-0.90;27.00
8591;DHT22;4333;48.322;14.340;2023-02-28T06:54:53;-0.90;25.60
8591;DHT22;4333;48.322;14.340;2023-02-28T06:57:28;-0.80;25.40
8591;DHT22;4333;48.322;14.340;2023-02-28T06:59:58;-0.70;24.10
8591;DHT22;4333;48.322;14.340;2023-02-28T07:02:24;-0.60;23.80
8591;DHT22;4333;48.322;14.340;2023-02-28T07:04:50;-0.60;24.20
8591;DHT22;4333;48.322;14.340;2023-02-28T07:07:16;-0.60;24.80
8591;DHT22;4333;48.322;14.340;2023-02-28T07:09:42;-0.60;24.60
8591;DHT22;4333;48.322;14.340;2023-02-28T07:12:07;-0.60;23.80
8591;DHT22;4333;48.322;14.340;2023-02-28T07:14:33;-0.50;23.20
8591;DHT22;4333;48.322;14.340;2023-02-28T07:16:59;-0.40;22.70
8591;DHT22;4333;48.322;14.340;2023-02-28T07:19:24;-0.30;22.90
8591;DHT22;4333;48.322;14.340;2023-02-28T07:21:50;0.30;22.50
8591;DHT22;4333;48.322;14.340;2023-02-28T07:24:16;1.70;16.90
8591;DHT22;4333;48.322;14.340;2023-02-28T07:26:43;3.00;6.80
8591;DHT22;4333;48.322;14.340;2023-02-28T07:29:09;4.70;1.70
8591;DHT22;4333;48.322;14.340;2023-02-28T07:31:35;5.50;1.00
8591;DHT22;4333;48.322;14.340;2023-02-28T07:34:00;6.40;1.00
8591;DHT22;4333;48.322;14.340;2023-02-28T07:36:28;7.50;1.00
8591;DHT22;4333;48.322;14.340;2023-02-28T07:38:54;8.80;1.00
8591;DHT22;4333;48.322;14.340;2023-02-28T07:41:21;9.60;1.00
8591;DHT22;4333;48.322;14.340;2023-02-28T07:43:47;9.90;1.00
8591;DHT22;4333;48.322;14.340;2023-02-28T07:46:15;9.80;1.00
8591;DHT22;4333;48.322;14.340;2023-02-28T07:48:42;9.60;1.00
8591;DHT22;4333;48.322;14.340;2023-02-28T07:51:07;10.10;1.00
8591;DHT22;4333;48.322;14.340;2023-02-28T07:53:33;9.70;1.00
8591;DHT22;4333;48.322;14.340;2023-02-28T07:56:01;9.20;1.00
8591;DHT22;4333;48.322;14.340;2023-02-28T07:58:28;9.90;1.00
8591;DHT22;4333;48.322;14.340;2023-02-28T08:00:54;9.10;1.00
8591;DHT22;4333;48.322;14.340;2023-02-28T08:03:22;9.40;1.00
8591;DHT22;4333;48.322;14.340;2023-02-28T08:05:51;9.80;1.00
8591;DHT22;4333;48.322;14.340;2023-02-28T08:08:18;9.60;1.00
8591;DHT22;4333;48.322;14.340;2023-02-28T08:10:45;9.10;1.00
8591;DHT22;4333;48.322;14.340;2023-02-28T08:13:11;8.80;1.00
8591;DHT22;4333;48.322;14.340;2023-02-28T08:15:37;8.90;1.00
8591;DHT22;4333;48.322;14.340;2023-02-28T08:18:03;9.20;1.00
8591;DHT22;4333;48.322;14.340;2023-02-28T08:20:28;9.30;1.00
8591;DHT22;4333;48.322;14.340;2023-02-28T08:22:54;8.80;1.00
8591;DHT22;4333;48.322;14.340;2023-02-28T08:25:20;8.70;1.00
8591;DHT22;4333;48.322;14.340;2023-02-28T08:27:46;8.10;1.00
8591;DHT22;4333;48.322;14.340;2023-02-28T08:30:13;8.30;1.00
8591;DHT22;4333;48.322;14.340;2023-02-28T08:32:40;8.40;1.00
8591;DHT22;4333;48.322;14.340;2023-02-28T08:35:08;8.70;1.00
8591;DHT22;4333;48.322;14.340;2023-02-28T08:37:39;8.30;1.00
8591;DHT22;4333;48.322;14.340;2023-02-28T08:40:06;8.10;1.00
8591;DHT22;4333;48.322;14.340;2023-02-28T08:42:32;8.10;1.00
8591;DHT22;4333;48.322;14.340;2023-02-28T08:44:58;7.70;1.00
8591;DHT22;4333;48.322;14.340;2023-02-28T08:47:23;7.40;1.00
8591;DHT22;4333;48.322;14.340;2023-02-28T08:49:49;8.50;1.00
8591;DHT22;4333;48.322;14.340;2023-02-28T08:52:15;7.90;1.00
8591;DHT22;4333;48.322;14.340;2023-02-28T08:54:40;8.20;1.00
8591;DHT22;4333;48.322;14.340;2023-02-28T08:57:06;9.40;1.00
8591;DHT22;4333;48.322;14.340;2023-02-28T08:59:32;9.40;1.00
8591;DHT22;4333;48.322;14.340;2023-02-28T09:01:58;8.30;1.00
8591;DHT22;4333;48.322;14.340;2023-02-28T09:04:23;7.80;1.00
8591;DHT22;4333;48.322;14.340;2023-02-28T09:06:51;8.60;1.00
8591;DHT22;4333;48.322;14.340;2023-02-28T09:09:17;8.90;1.00
8591;DHT22;4333;48.322;14.340;2023-02-28T09:11:42;9.30;1.00
8591;DHT22;4333;48.322;14.340;2023-02-28T09:14:08;9.30;1.00
8591;DHT22;4333;48.322;14.340;2023-02-28T09:16:34;9.50;1.00
8591;DHT22;4333;48.322;14.340;2023-02-28T09:19:02;9.20;1.00
8591;DHT22;4333;48.322;14.340;2023-02-28T09:21:28;8.60;1.00
8591;DHT22;4333;48.322;14.340;2023-02-28T09:23:54;8.40;1.00
8591;DHT22;4333;48.322;14.340;2023-02-28T09:26:41;8.40;1.00
8591;DHT22;4333;48.322;14.340;2023-02-28T09:29:07;7.50;1.00
8591;DHT22;4333;48.322;14.340;2023-02-28T09:31:35;6.70;1.00
8591;DHT22;4333;48.322;14.340;2023-02-28T09:34:00;7.40;1.00
8591;DHT22;4333;48.322;14.340;2023-02-28T09:36:27;7.30;1.00
8591;DHT22;4333;48.322;14.340;2023-02-28T09:38:53;7.40;1.00
8591;DHT22;4333;48.322;14.340;2023-02-28T09:41:21;7.50;1.00
8591;DHT22;4333;48.322;14.340;2023-02-28T09:43:52;7.20;1.00
8591;DHT22;4333;48.322;14.340;2023-02-28T09:49:06;7.40;1.00
8591;DHT22;4333;48.322;14.340;2023-02-28T09:51:34;8.50;1.00
8591;DHT22;4333;48.322;14.340;2023-02-28T09:54:05;7.80;1.00
8591;DHT22;4333;48.322;14.340;2023-02-28T09:56:40;7.90;1.00
8591;DHT22;4333;48.322;14.340;2023-02-28T09:59:12;8.50;1.00
8591;DHT22;4333;48.322;14.340;2023-02-28T10:05:02;8.20;1.00
8591;DHT22;4333;48.322;14.340;2023-02-28T10:08:12;8.40;1.00
8591;DHT22;4333;48.322;14.340;2023-02-28T10:13:14;8.80;1.00
8591;DHT22;4333;48.322;14.340;2023-02-28T10:15:41;9.20;1.00
8591;DHT22;4333;48.322;14.340;2023-02-28T10:18:12;9.50;1.00
8591;DHT22;4333;48.322;14.340;2023-02-28T10:20:43;8.20;1.00
8591;DHT22;4333;48.322;14.340;2023-02-28T10:23:24;7.10;1.00
8591;DHT22;4333;48.322;14.340;2023-02-28T10:26:03;6.90;1.00
8591;DHT22;4333;48.322;14.340;2023-02-28T10:28:33;7.80;1.00
8591;DHT22;4333;48.322;14.340;2023-02-28T10:30:59;7.20;1.00
8591;DHT22;4333;48.322;14.340;2023-02-28T10:33:28;6.70;1.00
8591;DHT22;4333;48.322;14.340;2023-02-28T10:35:54;6.50;1.00
8591;DHT22;4333;48.322;14.340;2023-02-28T10:38:28;6.80;1.00
8591;DHT22;4333;48.322;14.340;2023-02-28T10:41:10;7.90;1.00
8591;DHT22;4333;48.322;14.340;2023-02-28T10:43:38;8.80;1.00
8591;DHT22;4333;48.322;14.340;2023-02-28T10:48:44;8.40;1.00
8591;DHT22;4333;48.322;14.340;2023-02-28T10:51:12;8.90;1.00
8591;DHT22;4333;48.322;14.340;2023-02-28T11:03:56;9.30;1.00
8591;DHT22;4333;48.322;14.340;2023-02-28T11:06:33;9.80;1.00
8591;DHT22;4333;48.322;14.340;2023-02-28T11:09:27;9.10;1.00
8591;DHT22;4333;48.322;14.340;2023-02-28T11:11:54;8.00;1.00
8591;DHT22;4333;48.322;14.340;2023-02-28T11:14:26;7.60;1.00
8591;DHT22;4333;48.322;14.340;2023-02-28T11:16:54;8.50;1.00
8591;DHT22;4333;48.322;14.340;2023-02-28T11:19:34;9.20;1.00
8591;DHT22;4333;48.322;14.340;2023-02-28T11:22:05;8.90;1.00
8591;DHT22;4333;48.322;14.340;2023-02-28T11:24:35;9.20;1.00
8591;DHT22;4333;48.322;14.340;2023-02-28T11:27:02;9.40;1.00
8591;DHT22;4333;48.322;14.340;2023-02-28T11:29:32;8.70;1.00
8591;DHT22;4333;48.322;14.340;2023-02-28T11:34:32;9.50;1.00
8591;DHT22;4333;48.322;14.340;2023-02-28T11:36:59;10.00;1.00
8591;DHT22;4333;48.322;14.340;2023-02-28T11:39:26;9.20;1.00
8591;DHT22;4333;48.322;14.340;2023-02-28T11:42:14;8.50;1.00
8591;DHT22;4333;48.322;14.340;2023-02-28T11:45:22;8.80;1.00
8591;DHT22;4333;48.322;14.340;2023-02-28T11:48:04;8.70;1.00
8591;DHT22;4333;48.322;14.340;2023-02-28T11:56:44;10.50;1.00
8591;DHT22;4333;48.322;14.340;2023-02-28T12:05:54;11.30;1.00
8591;DHT22;4333;48.322;14.340;2023-02-28T12:13:55;9.90;1.00
8591;DHT22;4333;48.322;14.340;2023-02-28T12:19:39;8.70;1.00
8591;DHT22;4333;48.322;14.340;2023-02-28T12:22:17;8.10;1.00
8591;DHT22;4333;48.322;14.340;2023-02-28T12:27:24;8.10;1.00
8591;DHT22;4333;48.322;14.340;2023-02-28T12:30:03;8.50;1.00
8591;DHT22;4333;48.322;14.340;2023-02-28T12:35:06;8.50;1.00
8591;DHT22;4333;48.322;14.340;2023-02-28T12:38:02;8.40;1.00
8591;DHT22;4333;48.322;14.340;2023-02-28T12:40:49;8.30;1.00
8591;DHT22;4333;48.322;14.340;2023-02-28T12:43:17;9.40;1.00
8591;DHT22;4333;48.322;14.340;2023-02-28T12:46:19;10.30;1.00
8591;DHT22;4333;48.322;14.340;2023-02-28T12:48:56;10.50;1.00
8591;DHT22;4333;48.322;14.340;2023-02-28T12:51:24;10.60;1.00
8591;DHT22;4333;48.322;14.340;2023-02-28T12:56:41;9.90;1.00
8591;DHT22;4333;48.322;14.340;2023-02-28T12:59:27;9.10;1.00
8591;DHT22;4333;48.322;14.340;2023-02-28T13:05:26;8.50;1.00
8591;DHT22;4333;48.322;14.340;2023-02-28T13:10:58;8.50;1.00
8591;DHT22;4333;48.322;14.340;2023-02-28T13:13:30;8.90;1.00
8591;DHT22;4333;48.322;14.340;2023-02-28T13:18:46;8.30;1.00
8591;DHT22;4333;48.322;14.340;2023-02-28T13:21:28;8.20;1.00
8591;DHT22;4333;48.322;14.340;2023-02-28T13:34:31;8.90;1.00
8591;DHT22;4333;48.322;14.340;2023-02-28T13:47:40;7.60;1.00
8591;DHT22;4333;48.322;14.340;2023-02-28T13:57:01;7.40;1.00
8591;DHT22;4333;48.322;14.340;2023-02-28T13:59:33;7.60;1.00
8591;DHT22;4333;48.322;14.340;2023-02-28T14:02:17;7.80;1.00
8591;DHT22;4333;48.322;14.340;2023-02-28T14:05:18;8.00;1.00
8591;DHT22;4333;48.322;14.340;2023-02-28T14:08:14;8.20;1.00
8591;DHT22;4333;48.322;14.340;2023-02-28T14:10:50;8.40;1.00
8591;DHT22;4333;48.322;14.340;2023-02-28T14:13:44;8.20;1.00
8591;DHT22;4333;48.322;14.340;2023-02-28T14:16:17;8.30;1.00
8591;DHT22;4333;48.322;14.340;2023-02-28T14:18:58;7.90;1.00
8591;DHT22;4333;48.322;14.340;2023-02-28T14:21:34;7.60;1.00
8591;DHT22;4333;48.322;14.340;2023-02-28T14:30:25;7.70;1.00
8591;DHT22;4333;48.322;14.340;2023-02-28T14:41:44;6.90;1.00
8591;DHT22;4333;48.322;14.340;2023-02-28T14:44:26;7.00;1.00
8591;DHT22;4333;48.322;14.340;2023-02-28T14:46:57;7.30;1.00
8591;DHT22;4333;48.322;14.340;2023-02-28T14:49:44;7.40;1.00
8591;DHT22;4333;48.322;14.340;2023-02-28T14:52:15;7.30;1.00
8591;DHT22;4333;48.322;14.340;2023-02-28T14:54:43;7.20;1.00
8591;DHT22;4333;48.322;14.340;2023-02-28T14:57:28;7.20;1.00
8591;DHT22;4333;48.322;14.340;2023-02-28T15:00:30;7.00;1.00
8591;DHT22;4333;48.322;14.340;2023-02-28T15:03:00;7.00;1.00
8591;DHT22;4333;48.322;14.340;2023-02-28T15:05:33;6.90;1.00
8591;DHT22;4333;48.322;14.340;2023-02-28T15:08:09;6.60;1.00
8591;DHT22;4333;48.322;14.340;2023-02-28T15:10:36;6.50;1.00
8591;DHT22;4333;48.322;14.340;2023-02-28T15:13:06;6.20;1.00
8591;DHT22;4333;48.322;14.340;2023-02-28T15:21:07;6.10;1.00
8591;DHT22;4333;48.322;14.340;2023-02-28T15:23:35;5.90;1.00
8591;DHT22;4333;48.322;14.340;2023-02-28T15:26:02;5.80;1.00
8591;DHT22;4333;48.322;14.340;2023-02-28T15:28:28;5.70;1.00
8591;DHT22;4333;48.322;14.340;2023-02-28T15:31:00;5.60;1.00
8591;DHT22;4333;48.322;14.340;2023-02-28T15:33:32;5.50;1.00
8591;DHT22;4333;48.322;14.340;2023-02-28T15:36:28;5.50;1.00
8591;DHT22;4333;48.322;14.340;2023-02-28T15:38:55;5.60;1.00
8591;DHT22;4333;48.322;14.340;2023-02-28T15:41:30;5.50;1.00
8591;DHT22;4333;48.322;14.340;2023-02-28T15:44:16;5.50;1.00
8591;DHT22;4333;48.322;14.340;2023-02-28T15:46:52;5.40;1.00
8591;DHT22;4333;48.322;14.340;2023-02-28T15:49:20;5.40;1.00
8591;DHT22;4333;48.322;14.340;2023-02-28T15:51:48;5.40;1.00
8591;DHT22;4333;48.322;14.340;2023-02-28T15:54:28;5.50;1.00
8591;DHT22;4333;48.322;14.340;2023-02-28T15:56:56;5.50;1.00
8591;DHT22;4333;48.322;14.340;2023-02-28T15:59:26;5.40;1.00
8591;DHT22;4333;48.322;14.340;2023-02-28T16:02:13;5.30;1.00
8591;DHT22;4333;48.322;14.340;2023-02-28T16:07:25;5.20;1.00
8591;DHT22;4333;48.322;14.340;2023-02-28T16:09:51;5.10;1.00
8591;DHT22;4333;48.322;14.340;2023-02-28T16:12:19;5.10;1.00
8591;DHT22;4333;48.322;14.340;2023-02-28T16:14:46;5.10;1.00
8591;DHT22;4333;48.322;14.340;2023-02-28T16:17:24;4.90;1.00
8591;DHT22;4333;48.322;14.340;2023-02-28T16:19:54;4.90;1.00
8591;DHT22;4333;48.322;14.340;2023-02-28T16:22:20;4.80;1.00
8591;DHT22;4333;48.322;14.340;2023-02-28T16:24:46;4.90;1.00
8591;DHT22;4333;48.322;14.340;2023-02-28T16:27:28;4.80;1.00
8591;DHT22;4333;48.322;14.340;2023-02-28T16:32:25;4.80;1.00
8591;DHT22;4333;48.322;14.340;2023-02-28T16:34:51;4.80;1.00
8591;DHT22;4333;48.322;14.340;2023-02-28T16:37:17;4.80;1.00
8591;DHT22;4333;48.322;14.340;2023-02-28T16:39:44;4.80;1.00
8591;DHT22;4333;48.322;14.340;2023-02-28T16:42:21;4.70;1.00
8591;DHT22;4333;48.322;14.340;2023-02-28T16:44:48;4.60;1.00
8591;DHT22;4333;48.322;14.340;2023-02-28T16:47:14;4.50;1.00
8591;DHT22;4333;48.322;14.340;2023-02-28T16:49:42;4.50;1.00
8591;DHT22;4333;48.322;14.340;2023-02-28T16:52:11;4.40;1.00
8591;DHT22;4333;48.322;14.340;2023-02-28T16:54:41;4.40;1.00
8591;DHT22;4333;48.322;14.340;2023-02-28T16:57:17;4.30;1.00
8591;DHT22;4333;48.322;14.340;2023-02-28T16:59:44;4.30;1.00
8591;DHT22;4333;48.322;14.340;2023-02-28T17:02:15;4.20;1.00
8591;DHT22;4333;48.322;14.340;2023-02-28T17:04:42;4.20;1.00
8591;DHT22;4333;48.322;14.340;2023-02-28T17:07:12;4.20;1.00
8591;DHT22;4333;48.322;14.340;2023-02-28T17:09:38;4.20;1.00
8591;DHT22;4333;48.322;14.340;2023-02-28T17:12:04;4.20;1.00
8591;DHT22;4333;48.322;14.340;2023-02-28T17:14:30;4.20;1.00
8591;DHT22;4333;48.322;14.340;2023-02-28T17:16:58;4.20;1.00
8591;DHT22;4333;48.322;14.340;2023-02-28T17:19:26;4.20;1.00
8591;DHT22;4333;48.322;14.340;2023-02-28T17:21:51;4.20;1.00
8591;DHT22;4333;48.322;14.340;2023-02-28T17:24:18;4.20;1.00
8591;DHT22;4333;48.322;14.340;2023-02-28T17:26:43;4.10;1.00
8591;DHT22;4333;48.322;14.340;2023-02-28T17:29:19;4.10;1.00
8591;DHT22;4333;48.322;14.340;2023-02-28T17:31:46;4.10;1.00
8591;DHT22;4333;48.322;14.340;2023-02-28T17:34:12;4.10;1.00
8591;DHT22;4333;48.322;14.340;2023-02-28T17:36:44;4.10;1.00
8591;DHT22;4333;48.322;14.340;2023-02-28T17:39:14;4.10;1.00
8591;DHT22;4333;48.322;14.340;2023-02-28T17:41:41;4.00;1.50
8591;DHT22;4333;48.322;14.340;2023-02-28T17:44:08;3.90;1.00
8591;DHT22;4333;48.322;14.340;2023-02-28T17:46:34;3.90;1.00
8591;DHT22;4333;48.322;14.340;2023-02-28T17:49:00;3.90;1.00
8591;DHT22;4333;48.322;14.340;2023-02-28T17:51:25;3.90;1.00
8591;DHT22;4333;48.322;14.340;2023-02-28T17:53:51;3.90;1.00
8591;DHT22;4333;48.322;14.340;2023-02-28T17:56:25;3.90;1.00
8591;DHT22;4333;48.322;14.340;2023-02-28T17:58:55;3.80;1.40
8591;DHT22;4333;48.322;14.340;2023-02-28T18:01:22;3.80;1.00
8591;DHT22;4333;48.322;14.340;2023-02-28T18:03:50;3.80;1.00
8591;DHT22;4333;48.322;14.340;2023-02-28T18:06:19;3.80;1.00
8591;DHT22;4333;48.322;14.340;2023-02-28T18:08:46;3.80;1.00
8591;DHT22;4333;48.322;14.340;2023-02-28T18:11:17;3.90;1.20
8591;DHT22;4333;48.322;14.340;2023-02-28T18:13:47;3.80;1.00
8591;DHT22;4333;48.322;14.340;2023-02-28T18:16:15;3.90;1.00
8591;DHT22;4333;48.322;14.340;2023-02-28T18:18:42;3.80;1.00
8591;DHT22;4333;48.322;14.340;2023-02-28T18:21:10;3.80;1.00
8591;DHT22;4333;48.322;14.340;2023-02-28T18:23:39;3.90;1.00
8591;DHT22;4333;48.322;14.340;2023-02-28T18:26:13;3.90;1.00
8591;DHT22;4333;48.322;14.340;2023-02-28T18:28:39;3.80;1.10
8591;DHT22;4333;48.322;14.340;2023-02-28T18:31:08;3.80;1.80
8591;DHT22;4333;48.322;14.340;2023-02-28T18:33:34;3.80;1.00
8591;DHT22;4333;48.322;14.340;2023-02-28T18:36:00;3.80;1.10
8591;DHT22;4333;48.322;14.340;2023-02-28T18:38:26;3.70;1.00
8591;DHT22;4333;48.322;14.340;2023-02-28T18:40:56;3.70;1.00
8591;DHT22;4333;48.322;14.340;2023-02-28T18:43:27;3.70;1.00
8591;DHT22;4333;48.322;14.340;2023-02-28T18:45:53;3.70;1.00
8591;DHT22;4333;48.322;14.340;2023-02-28T18:48:19;3.70;1.00
8591;DHT22;4333;48.322;14.340;2023-02-28T18:50:49;3.70;1.00
8591;DHT22;4333;48.322;14.340;2023-02-28T18:53:15;3.70;1.00
8591;DHT22;4333;48.322;14.340;2023-02-28T18:55:42;3.70;1.00
8591;DHT22;4333;48.322;14.340;2023-02-28T18:58:07;3.70;1.40